Nansha Dao, China
Current Conditions -  °F | °C
As of 5:00 PM on Saturday 27 Dec 2014 (Local Time) from WBKT Reporting Station
Moderate Rain Moderate Rain  
Wind Chill: 77°   Ceiling: 3000
Heat Index: 78°   Visibility: 1.8mi
Dew Point: 77°   Wind: 3mph
Humidity: 100%   Direction: 160°SSE
Pressure: 29.77"   Gusts: NA
Location:  10.38°N, 114.37°E
Report Text: WBKT 270900Z 16003KT 3000 RA FEW006 SCT010 BKN030 25/25 Q1008
Loading
Personal Weather Stations






























Interactive Weather Map New forecast layout! Learn more

10-Day Weather Forecast

Advertisements
Track Severe Weather on mobile